25XA weather

Headwaters Airport
Fredericksburg, Texas, United States

Public forecast

Using degrees Fahrenheit for public forecast. Weather courtesy of forecast.io.

Closest aviation weather report (METAR) to Headwaters Airport

Closest report is Gillespie County Airport, 13.7 nm (25.4 km) NW. Retrieved 2019/10/13 22:35 UTC (1 minute ago):

KT82 132235Z AUTO 21008KT 10SM BKN120 24/12 A2998 RMK AO2 T02400115

Closest aviation forecast (TAF) to Headwaters Airport

Closest forecast is San Antonio International Airport, 36.1 nm (66.8 km) SSE. Retrieved 2019/10/13 18:22 UTC (4 hours ago):

TAF KSAT 131720Z 1318/1424 16005KT P6SM OVC050 FM140900 12005KT P6SM BKN015 FM141100 VRB03KT 6SM BR OVC007 FM141700 14005KT P6SM OVC015 FM141900 16006KT P6SM BKN050